Time;durP1;ratioP1;P1;durP2;ratioP2;P2;SDS_P1;SDS_P2;PMS_P1;PMS_P2;Temp;Humidity;BMP_temperature;BMP_pressure;BME280_temperature;BME280_humidity;BME280_pressure;Samples;Min_cycle;Max_cycle;Signal;HPM_P1;HPM_P2
2021/09/19 00:00:36;;;;;;;5.47;4.97;;;;;;;;;;5035745;28;20061;-58
2021/09/19 00:03:01;;;;;;;3.97;3.67;;;;;;;;;;5035800;28;20029;-56
2021/09/19 00:05:27;;;;;;;5.50;4.07;;;;;;;;;;5036125;28;20030;-57
2021/09/19 00:07:52;;;;;;;5.15;4.68;;;;;;;;;;5035881;28;20030;-57
2021/09/19 00:10:17;;;;;;;4.85;4.30;;;;;;;;;;5033973;28;20057;-57
2021/09/19 00:12:44;;;;;;;5.32;4.82;;;;;;;;;;5034513;28;20159;-56
2021/09/19 00:15:10;;;;;;;4.88;4.47;;;;;;;;;;5037068;28;20033;-56
2021/09/19 00:17:36;;;;;;;4.90;4.50;;;;;;;;;;5033982;28;20021;-54
2021/09/19 00:20:02;;;;;;;5.50;4.38;;;;;;;;;;5035870;28;20052;-55
2021/09/19 00:22:27;;;;;;;4.60;4.18;;;;;;;;;;5037027;28;20355;-53
2021/09/19 00:24:52;;;;;;;4.82;4.43;;;;;;;;;;5035929;28;20044;-53
2021/09/19 00:27:18;;;;;;;4.90;4.38;;;;;;;;;;5035730;28;20477;-59
2021/09/19 00:29:43;;;;;;;5.50;5.00;;;;;;;;;;5034988;28;20091;-58
2021/09/19 00:32:08;;;;;;;5.03;4.53;;;;;;;;;;5033228;28;20034;-56
2021/09/19 00:34:34;;;;;;;5.68;5.22;;;;;;;;;;5035619;28;20032;-59
2021/09/19 00:36:59;;;;;;;5.15;4.65;;;;;;;;;;5034765;28;20045;-56
2021/09/19 00:39:24;;;;;;;4.88;4.47;;;;;;;;;;5035259;28;20511;-58
2021/09/19 00:41:49;;;;;;;6.70;5.50;;;;;;;;;;5035742;28;20076;-60
2021/09/19 00:44:15;;;;;;;6.35;5.43;;;;;;;;;;5034536;28;20047;-58
2021/09/19 00:46:40;;;;;;;6.38;5.78;;;;;;;;;;5035488;28;20466;-52
2021/09/19 00:49:06;;;;;;;6.28;5.43;;;;;;;;;;5035542;28;20032;-56
2021/09/19 00:51:31;;;;;;;6.25;5.65;;;;;;;;;;5035792;28;20029;-58
2021/09/19 00:53:57;;;;;;;6.85;5.85;;;;;;;;;;5034556;28;20112;-53
2021/09/19 00:56:24;;;;;;;6.32;5.72;;;;;;;;;;5035345;28;20057;-57
2021/09/19 00:58:51;;;;;;;6.28;5.63;;;;;;;;;;5033818;28;20021;-57
2021/09/19 01:01:17;;;;;;;5.80;5.20;;;;;;;;;;5034989;28;20496;-57
2021/09/19 01:03:43;;;;;;;6.55;5.85;;;;;;;;;;5034382;28;20100;-56
2021/09/19 01:06:08;;;;;;;6.15;5.55;;;;;;;;;;5035777;28;20040;-57
2021/09/19 01:08:33;;;;;;;6.80;6.20;;;;;;;;;;5034796;28;20017;-58
2021/09/19 01:10:59;;;;;;;6.35;5.75;;;;;;;;;;5034603;28;20116;-54
2021/09/19 01:13:26;;;;;;;11.85;7.18;;;;;;;;;;5033021;28;20068;-57
2021/09/19 01:15:52;;;;;;;6.05;5.38;;;;;;;;;;5034980;28;20474;-58
2021/09/19 01:18:18;;;;;;;6.30;5.70;;;;;;;;;;5035245;28;20513;-55
2021/09/19 01:20:43;;;;;;;5.78;5.28;;;;;;;;;;5036275;28;20075;-55
2021/09/19 01:23:10;;;;;;;6.38;5.60;;;;;;;;;;5033796;28;20203;-58
2021/09/19 01:25:36;;;;;;;6.57;5.80;;;;;;;;;;5033966;28;20106;-57
2021/09/19 01:28:03;;;;;;;6.72;6.00;;;;;;;;;;5036477;28;20029;-57
2021/09/19 01:30:29;;;;;;;6.80;6.10;;;;;;;;;;5034650;28;20196;-56
2021/09/19 01:32:54;;;;;;;6.65;5.75;;;;;;;;;;5034759;28;20025;-55
2021/09/19 01:35:19;;;;;;;6.72;5.78;;;;;;;;;;5034684;28;20078;-56
2021/09/19 01:37:44;;;;;;;6.97;6.18;;;;;;;;;;5032883;28;20116;-56
2021/09/19 01:40:10;;;;;;;7.80;6.05;;;;;;;;;;5033184;28;20029;-55
2021/09/19 01:42:36;;;;;;;7.55;6.78;;;;;;;;;;5034935;28;20025;-55
2021/09/19 01:45:01;;;;;;;10.20;7.25;;;;;;;;;;5034898;28;20060;-55
2021/09/19 01:47:26;;;;;;;7.82;6.97;;;;;;;;;;5034941;28;20112;-54
2021/09/19 01:49:52;;;;;;;7.53;6.82;;;;;;;;;;5036159;28;20017;-52
2021/09/19 01:52:18;;;;;;;12.90;7.75;;;;;;;;;;5033227;28;20116;-53
2021/09/19 01:54:43;;;;;;;9.43;6.15;;;;;;;;;;5032346;28;20021;-58
2021/09/19 01:57:08;;;;;;;8.35;6.88;;;;;;;;;;5032639;28;20511;-57
2021/09/19 01:59:34;;;;;;;7.65;6.85;;;;;;;;;;5032589;28;20029;-58
2021/09/19 02:01:59;;;;;;;7.60;6.90;;;;;;;;;;5033241;28;20044;-55
2021/09/19 02:04:25;;;;;;;8.63;7.07;;;;;;;;;;5032589;28;20038;-58
2021/09/19 02:06:50;;;;;;;7.93;6.07;;;;;;;;;;5035616;28;20029;-54
2021/09/19 02:09:15;;;;;;;8.48;6.63;;;;;;;;;;5033082;28;20032;-57
2021/09/19 02:11:40;;;;;;;6.13;5.53;;;;;;;;;;5035053;28;20092;-59
2021/09/19 02:14:06;;;;;;;6.55;5.95;;;;;;;;;;5032851;28;20422;-56
2021/09/19 02:16:31;;;;;;;8.20;6.47;;;;;;;;;;5034074;28;20109;-56
2021/09/19 02:18:56;;;;;;;10.30;6.75;;;;;;;;;;5033333;28;20021;-53
2021/09/19 02:21:22;;;;;;;7.05;6.32;;;;;;;;;;5032359;28;20073;-56
2021/09/19 02:23:47;;;;;;;6.55;5.95;;;;;;;;;;5035166;28;20048;-56
2021/09/19 02:26:12;;;;;;;6.97;6.28;;;;;;;;;;5034777;28;20148;-56
2021/09/19 02:28:38;;;;;;;9.43;6.13;;;;;;;;;;5033644;28;20021;-58
2021/09/19 02:31:03;;;;;;;6.82;6.13;;;;;;;;;;5033399;28;20021;-53
2021/09/19 02:33:28;;;;;;;7.55;6.70;;;;;;;;;;5033374;28;20021;-58
2021/09/19 02:35:54;;;;;;;8.38;7.13;;;;;;;;;;5031845;28;20068;-56
2021/09/19 02:38:19;;;;;;;7.88;6.70;;;;;;;;;;5032658;28;20041;-56
2021/09/19 02:40:45;;;;;;;8.65;7.10;;;;;;;;;;5031979;28;20060;-57
2021/09/19 02:43:10;;;;;;;7.30;6.13;;;;;;;;;;5031651;28;20271;-57
2021/09/19 02:45:35;;;;;;;9.07;7.90;;;;;;;;;;5032161;28;20071;-56
2021/09/19 02:48:01;;;;;;;8.43;7.05;;;;;;;;;;5032244;28;20466;-60
2021/09/19 02:50:26;;;;;;;7.28;6.57;;;;;;;;;;5032755;28;20036;-57
2021/09/19 02:52:51;;;;;;;9.20;8.30;;;;;;;;;;5032641;28;20020;-63
2021/09/19 02:55:17;;;;;;;9.55;7.65;;;;;;;;;;5033996;28;20515;-55
2021/09/19 02:57:43;;;;;;;7.68;6.88;;;;;;;;;;5033753;28;20868;-57
2021/09/19 03:00:11;;;;;;;9.73;7.63;;;;;;;;;;5033919;28;20025;-52
2021/09/19 03:02:37;;;;;;;8.95;8.02;;;;;;;;;;5033487;28;20041;-53
2021/09/19 03:05:02;;;;;;;9.10;8.07;;;;;;;;;;5034273;28;20024;-57
2021/09/19 03:07:28;;;;;;;8.05;7.13;;;;;;;;;;5035381;28;20525;-57
2021/09/19 03:09:53;;;;;;;7.70;6.97;;;;;;;;;;5032150;28;20021;-56
2021/09/19 03:12:18;;;;;;;8.45;7.13;;;;;;;;;;5033381;28;20032;-55
2021/09/19 03:14:43;;;;;;;9.60;7.25;;;;;;;;;;5031909;28;20024;-57
2021/09/19 03:17:09;;;;;;;7.75;7.05;;;;;;;;;;5032565;28;20024;-56
2021/09/19 03:19:34;;;;;;;9.43;7.53;;;;;;;;;;5033679;28;20017;-57
2021/09/19 03:21:59;;;;;;;8.60;7.65;;;;;;;;;;5031521;28;20092;-55
2021/09/19 03:24:25;;;;;;;10.40;7.45;;;;;;;;;;5032247;28;20028;-56
2021/09/19 03:26:50;;;;;;;10.80;7.90;;;;;;;;;;5030601;28;20017;-57
2021/09/19 03:29:15;;;;;;;8.88;7.97;;;;;;;;;;5030134;28;20032;-55
2021/09/19 03:31:40;;;;;;;8.85;7.95;;;;;;;;;;5031691;28;20518;-56
2021/09/19 03:34:05;;;;;;;9.63;8.50;;;;;;;;;;5030066;28;20048;-57
2021/09/19 03:36:31;;;;;;;9.32;7.75;;;;;;;;;;5031942;28;20120;-58
2021/09/19 03:38:56;;;;;;;7.93;7.03;;;;;;;;;;5031100;28;20037;-55
2021/09/19 03:41:21;;;;;;;8.50;7.00;;;;;;;;;;5030282;28;20076;-55
2021/09/19 03:43:47;;;;;;;11.00;8.73;;;;;;;;;;5032199;28;20148;-57
2021/09/19 03:46:12;;;;;;;9.95;7.80;;;;;;;;;;5033457;28;20052;-56
2021/09/19 03:48:37;;;;;;;9.02;6.80;;;;;;;;;;5033413;28;20064;-56
2021/09/19 03:51:03;;;;;;;8.48;7.60;;;;;;;;;;5032054;28;20036;-56
2021/09/19 03:53:28;;;;;;;9.98;7.93;;;;;;;;;;5030268;28;20216;-55
2021/09/19 03:55:53;;;;;;;9.05;7.22;;;;;;;;;;5032977;28;20056;-57
2021/09/19 03:58:18;;;;;;;8.55;7.72;;;;;;;;;;5032618;28;20497;-58
2021/09/19 04:00:44;;;;;;;8.02;6.88;;;;;;;;;;5032296;28;20364;-56
2021/09/19 04:03:09;;;;;;;10.07;8.30;;;;;;;;;;5032240;28;20190;-57
2021/09/19 04:05:36;;;;;;;9.63;8.05;;;;;;;;;;5032071;28;20029;-54
2021/09/19 04:08:01;;;;;;;9.27;7.93;;;;;;;;;;5032316;28;20086;-57
2021/09/19 04:10:27;;;;;;;10.20;8.15;;;;;;;;;;5031841;28;20033;-53
2021/09/19 04:12:52;;;;;;;14.45;8.23;;;;;;;;;;5030089;28;20142;-52
2021/09/19 04:15:17;;;;;;;10.05;8.52;;;;;;;;;;5030158;28;20017;-53
2021/09/19 04:17:42;;;;;;;9.45;7.75;;;;;;;;;;5030686;28;20764;-56
2021/09/19 04:20:08;;;;;;;8.48;7.63;;;;;;;;;;5031438;28;20029;-54
2021/09/19 04:22:33;;;;;;;8.27;7.30;;;;;;;;;;5031987;28;20026;-58
2021/09/19 04:25:00;;;;;;;10.52;7.60;;;;;;;;;;5032309;28;20034;-56
2021/09/19 04:27:25;;;;;;;8.52;7.63;;;;;;;;;;5030438;28;20076;-58
2021/09/19 04:29:50;;;;;;;9.38;8.20;;;;;;;;;;5030635;28;20029;-56
2021/09/19 04:32:16;;;;;;;9.93;8.10;;;;;;;;;;5031634;28;20574;-56
2021/09/19 04:34:41;;;;;;;10.18;7.57;;;;;;;;;;5029766;28;20375;-55
2021/09/19 04:37:07;;;;;;;10.77;7.95;;;;;;;;;;5034003;28;20568;-54
2021/09/19 04:39:32;;;;;;;9.70;8.50;;;;;;;;;;5032726;28;20028;-56
2021/09/19 04:41:57;;;;;;;10.63;8.52;;;;;;;;;;5035485;28;20025;-52
2021/09/19 04:44:23;;;;;;;9.63;7.72;;;;;;;;;;5036018;28;20705;-53
2021/09/19 04:46:48;;;;;;;8.88;7.97;;;;;;;;;;5034854;28;20022;-56
2021/09/19 04:49:13;;;;;;;10.20;8.05;;;;;;;;;;5034503;28;20031;-54
2021/09/19 04:51:38;;;;;;;9.82;8.20;;;;;;;;;;5034932;28;20032;-57
2021/09/19 04:54:04;;;;;;;10.88;8.30;;;;;;;;;;5035765;28;20021;-55
2021/09/19 04:56:29;;;;;;;10.63;8.45;;;;;;;;;;5034559;28;20450;-54
2021/09/19 04:58:54;;;;;;;10.82;8.13;;;;;;;;;;5035990;28;20040;-56
2021/09/19 05:01:20;;;;;;;8.85;7.95;;;;;;;;;;5035635;28;20028;-53
2021/09/19 05:03:45;;;;;;;9.25;8.07;;;;;;;;;;5036062;28;20032;-56
2021/09/19 05:06:11;;;;;;;9.30;8.02;;;;;;;;;;5033221;28;20032;-54
2021/09/19 05:08:37;;;;;;;11.18;8.77;;;;;;;;;;5036254;28;20030;-55
2021/09/19 05:11:02;;;;;;;9.63;8.40;;;;;;;;;;5034525;28;20033;-56
2021/09/19 05:13:28;;;;;;;8.90;7.72;;;;;;;;;;5035071;28;20100;-52
2021/09/19 05:15:53;;;;;;;11.95;8.93;;;;;;;;;;5034482;28;20021;-52
2021/09/19 05:18:18;;;;;;;10.10;8.15;;;;;;;;;;5035381;28;20095;-56
2021/09/19 05:20:43;;;;;;;12.60;9.07;;;;;;;;;;5033566;28;20373;-55
2021/09/19 05:23:09;;;;;;;10.50;8.80;;;;;;;;;;5034678;28;20655;-56
2021/09/19 05:25:34;;;;;;;13.82;10.35;;;;;;;;;;5034898;28;20111;-52
2021/09/19 05:27:59;;;;;;;12.32;9.63;;;;;;;;;;5032880;28;20029;-57
2021/09/19 05:30:25;;;;;;;12.05;8.68;;;;;;;;;;5034323;28;20123;-54
2021/09/19 05:32:50;;;;;;;8.68;7.05;;;;;;;;;;5035243;28;20056;-53
2021/09/19 05:35:15;;;;;;;8.20;7.40;;;;;;;;;;5033516;28;20174;-55
2021/09/19 05:37:40;;;;;;;7.28;6.55;;;;;;;;;;5034110;28;20026;-52
2021/09/19 05:40:07;;;;;;;7.60;6.35;;;;;;;;;;5033327;28;20036;-52
2021/09/19 05:42:32;;;;;;;7.20;6.25;;;;;;;;;;5037377;28;20036;-54
2021/09/19 05:44:58;;;;;;;6.63;5.97;;;;;;;;;;5034402;28;20013;-58
2021/09/19 05:47:23;;;;;;;6.50;5.85;;;;;;;;;;5034292;28;20043;-54
2021/09/19 05:49:48;;;;;;;6.80;6.20;;;;;;;;;;5034057;28;20406;-55
2021/09/19 05:52:14;;;;;;;6.75;6.05;;;;;;;;;;5035175;28;20120;-56
2021/09/19 05:54:39;;;;;;;7.25;6.30;;;;;;;;;;5035676;28;20372;-54
2021/09/19 05:57:04;;;;;;;8.43;6.63;;;;;;;;;;5035002;28;20377;-56
2021/09/19 05:59:30;;;;;;;5.93;5.32;;;;;;;;;;5034296;28;20021;-57
2021/09/19 06:01:55;;;;;;;6.72;6.13;;;;;;;;;;5035978;28;20016;-55
2021/09/19 06:04:20;;;;;;;7.43;6.60;;;;;;;;;;5034488;28;20039;-56
2021/09/19 06:06:46;;;;;;;7.15;6.45;;;;;;;;;;5034856;28;20226;-56
2021/09/19 06:09:11;;;;;;;6.80;6.10;;;;;;;;;;5034559;28;20515;-53
2021/09/19 06:11:36;;;;;;;7.35;6.65;;;;;;;;;;5034650;28;20082;-57
2021/09/19 06:14:02;;;;;;;6.60;6.03;;;;;;;;;;5034247;28;20035;-54
2021/09/19 06:16:27;;;;;;;6.60;6.00;;;;;;;;;;5034871;28;20021;-56
2021/09/19 06:18:53;;;;;;;5.88;5.38;;;;;;;;;;5033093;28;20069;-56
2021/09/19 06:21:18;;;;;;;6.35;5.85;;;;;;;;;;5034090;28;20037;-55
2021/09/19 06:23:43;;;;;;;6.03;5.43;;;;;;;;;;5034315;28;20164;-55
2021/09/19 06:26:09;;;;;;;5.70;5.20;;;;;;;;;;5035324;28;20025;-54
2021/09/19 06:28:34;;;;;;;6.60;5.05;;;;;;;;;;5034740;28;20036;-57
2021/09/19 06:31:00;;;;;;;5.88;5.35;;;;;;;;;;5034526;28;20032;-54
2021/09/19 06:33:26;;;;;;;5.25;4.85;;;;;;;;;;5032134;28;20056;-54
2021/09/19 06:35:51;;;;;;;5.28;4.80;;;;;;;;;;5032108;28;20150;-54
2021/09/19 06:38:17;;;;;;;5.53;5.07;;;;;;;;;;5035787;28;20032;-53
2021/09/19 06:40:42;;;;;;;4.63;4.32;;;;;;;;;;5035412;28;20031;-57
2021/09/19 06:43:07;;;;;;;5.22;4.78;;;;;;;;;;5034601;28;20108;-57
2021/09/19 06:45:33;;;;;;;4.97;4.43;;;;;;;;;;5033471;28;20031;-57
2021/09/19 06:47:58;;;;;;;4.80;4.40;;;;;;;;;;5036291;28;20773;-56
2021/09/19 06:50:23;;;;;;;5.15;4.65;;;;;;;;;;5033646;28;20350;-54
2021/09/19 06:52:48;;;;;;;4.85;4.45;;;;;;;;;;5034761;28;20429;-57
2021/09/19 06:55:14;;;;;;;5.38;4.88;;;;;;;;;;5035102;28;20031;-53
2021/09/19 06:57:39;;;;;;;5.32;4.63;;;;;;;;;;5037245;28;20063;-52
2021/09/19 07:00:05;;;;;;;5.03;4.63;;;;;;;;;;5032538;28;20017;-53
2021/09/19 07:02:30;;;;;;;5.32;4.18;;;;;;;;;;5034980;28;20802;-53
2021/09/19 07:04:56;;;;;;;6.53;4.50;;;;;;;;;;5034536;28;20036;-52
2021/09/19 07:07:21;;;;;;;4.95;4.55;;;;;;;;;;5035461;28;20083;-52
2021/09/19 07:09:46;;;;;;;5.32;4.82;;;;;;;;;;5035086;28;20025;-57
2021/09/19 07:12:12;;;;;;;4.70;4.32;;;;;;;;;;5034126;28;20027;-55
2021/09/19 07:14:38;;;;;;;5.10;4.68;;;;;;;;;;5034397;28;20025;-56
2021/09/19 07:17:03;;;;;;;4.68;4.28;;;;;;;;;;5034054;28;20024;-53
2021/09/19 07:19:28;;;;;;;4.82;4.43;;;;;;;;;;5034800;28;20463;-54
2021/09/19 07:21:53;;;;;;;4.15;3.85;;;;;;;;;;5033278;28;20037;-54
2021/09/19 07:24:19;;;;;;;4.70;4.30;;;;;;;;;;5034987;28;20530;-57
2021/09/19 07:26:44;;;;;;;5.10;4.70;;;;;;;;;;5034641;28;20025;-58
2021/09/19 07:29:09;;;;;;;5.10;4.63;;;;;;;;;;5034087;28;20388;-61
2021/09/19 07:31:35;;;;;;;4.70;4.32;;;;;;;;;;5034036;28;20052;-59
2021/09/19 07:34:00;;;;;;;4.22;3.92;;;;;;;;;;5034490;28;20028;-60
2021/09/19 07:36:27;;;;;;;4.20;3.90;;;;;;;;;;5034526;28;20052;-55
2021/09/19 07:38:53;;;;;;;4.45;4.13;;;;;;;;;;5032900;28;20028;-59
2021/09/19 07:41:18;;;;;;;4.25;3.95;;;;;;;;;;5033291;28;20034;-57
2021/09/19 07:43:43;;;;;;;3.90;3.60;;;;;;;;;;5033003;28;20462;-58
2021/09/19 07:46:09;;;;;;;4.40;4.10;;;;;;;;;;5033564;28;20116;-56
2021/09/19 07:48:34;;;;;;;5.95;4.70;;;;;;;;;;5032617;28;20022;-58
2021/09/19 07:50:59;;;;;;;6.10;4.40;;;;;;;;;;5032075;28;20108;-59
2021/09/19 07:53:25;;;;;;;4.43;4.10;;;;;;;;;;5032617;28;20888;-57
2021/09/19 07:55:50;;;;;;;4.53;4.22;;;;;;;;;;5033293;28;20511;-58
2021/09/19 07:58:16;;;;;;;3.63;3.42;;;;;;;;;;5031868;28;20153;-60
2021/09/19 08:00:41;;;;;;;3.70;3.40;;;;;;;;;;5030233;28;20104;-56
2021/09/19 08:03:06;;;;;;;6.28;2.97;;;;;;;;;;5064493;28;20061;-59
2021/09/19 08:05:31;;;;;;;3.40;2.67;;;;;;;;;;5031665;28;20586;-59
2021/09/19 08:07:57;;;;;;;3.70;3.40;;;;;;;;;;5033721;28;20463;-58
2021/09/19 08:10:22;;;;;;;3.22;3.03;;;;;;;;;;5031977;28;20057;-60
2021/09/19 08:12:48;;;;;;;3.30;3.10;;;;;;;;;;5034176;28;20026;-60
2021/09/19 08:15:17;;;;;;;3.30;3.10;;;;;;;;;;5038436;28;20028;-58
2021/09/19 08:17:42;;;;;;;3.08;2.88;;;;;;;;;;5034820;28;20121;-59
2021/09/19 08:20:09;;;;;;;3.17;2.97;;;;;;;;;;5036140;28;20077;-58
2021/09/19 08:22:35;;;;;;;2.50;2.40;;;;;;;;;;5036393;28;20120;-61
2021/09/19 08:25:04;;;;;;;2.97;2.78;;;;;;;;;;5039832;28;20140;-58
2021/09/19 08:27:30;;;;;;;5.22;4.15;;;;;;;;;;5037675;28;20030;-56
2021/09/19 08:29:56;;;;;;;3.17;2.97;;;;;;;;;;5034825;28;20497;-57
2021/09/19 08:32:21;;;;;;;2.90;2.70;;;;;;;;;;5034884;28;20236;-57
2021/09/19 08:34:46;;;;;;;2.85;2.65;;;;;;;;;;5035623;28;20654;-57
2021/09/19 08:37:11;;;;;;;4.32;2.60;;;;;;;;;;5034964;28;20049;-58
2021/09/19 08:39:37;;;;;;;2.67;2.58;;;;;;;;;;5036021;28;20028;-57
2021/09/19 08:42:03;;;;;;;2.40;2.30;;;;;;;;;;5034681;28;20040;-60
2021/09/19 08:44:28;;;;;;;2.55;2.38;;;;;;;;;;5036806;28;20018;-56
2021/09/19 08:46:53;;;;;;;2.40;2.20;;;;;;;;;;5036584;28;20031;-60
2021/09/19 08:49:18;;;;;;;2.25;2.13;;;;;;;;;;5033444;28;20037;-59
2021/09/19 08:51:44;;;;;;;2.38;2.20;;;;;;;;;;5035613;28;20021;-60
2021/09/19 08:54:09;;;;;;;2.95;2.75;;;;;;;;;;5036497;28;20104;-59
2021/09/19 08:56:35;;;;;;;3.28;2.97;;;;;;;;;;5036233;28;20025;-60
2021/09/19 08:59:01;;;;;;;2.95;2.65;;;;;;;;;;5032603;28;20020;-60
2021/09/19 09:01:26;;;;;;;2.40;2.20;;;;;;;;;;5035757;28;20022;-58
2021/09/19 09:03:51;;;;;;;2.22;2.03;;;;;;;;;;5034960;28;20108;-58
2021/09/19 09:06:18;;;;;;;2.35;2.25;;;;;;;;;;5037525;28;20049;-58
2021/09/19 09:08:47;;;;;;;2.65;2.55;;;;;;;;;;5035157;28;20081;-58
2021/09/19 09:11:12;;;;;;;2.40;2.20;;;;;;;;;;5035479;28;20112;-58
2021/09/19 09:13:39;;;;;;;2.35;2.25;;;;;;;;;;5067897;28;20645;-58
2021/09/19 09:16:06;;;;;;;2.33;2.20;;;;;;;;;;5036323;28;20064;-57
2021/09/19 09:18:31;;;;;;;2.65;2.45;;;;;;;;;;5033963;28;20149;-58
2021/09/19 09:21:01;;;;;;;2.50;2.38;;;;;;;;;;5032413;28;20039;-58
2021/09/19 09:23:39;;;;;;;2.85;2.65;;;;;;;;;;5034874;28;20036;-58
2021/09/19 09:26:11;;;;;;;2.88;2.13;;;;;;;;;;5035441;28;20026;-57
2021/09/19 09:28:40;;;;;;;2.42;2.22;;;;;;;;;;5033657;28;20535;-57
2021/09/19 09:31:05;;;;;;;2.55;2.35;;;;;;;;;;5034429;28;20036;-57
2021/09/19 09:33:31;;;;;;;2.33;2.13;;;;;;;;;;5034112;28;20032;-59
2021/09/19 09:35:56;;;;;;;2.75;2.10;;;;;;;;;;5033441;28;20049;-58
2021/09/19 09:38:23;;;;;;;2.38;2.28;;;;;;;;;;5032904;28;20155;-58
2021/09/19 09:40:49;;;;;;;2.65;2.50;;;;;;;;;;5033526;28;20051;-58
2021/09/19 09:43:15;;;;;;;2.90;2.70;;;;;;;;;;5034851;28;20373;-55
2021/09/19 09:45:41;;;;;;;3.25;2.30;;;;;;;;;;5034330;28;20029;-59
2021/09/19 09:48:22;;;;;;;2.75;2.55;;;;;;;;;;5033777;28;20033;-60
2021/09/19 09:50:48;;;;;;;2.25;2.15;;;;;;;;;;5031439;28;20032;-59
2021/09/19 09:53:13;;;;;;;2.00;1.90;;;;;;;;;;5034608;28;20067;-55
2021/09/19 09:55:45;;;;;;;3.03;2.83;;;;;;;;;;5033197;28;20040;-58
2021/09/19 09:58:11;;;;;;;2.75;2.55;;;;;;;;;;5032785;28;20124;-58
2021/09/19 10:00:37;;;;;;;16.10;10.07;;;;;;;;;;5034152;28;20448;-58
2021/09/19 10:03:03;;;;;;;41.83;24.30;;;;;;;;;;5036680;28;20022;-58
2021/09/19 10:05:28;;;;;;;3.63;2.92;;;;;;;;;;5033519;28;20031;-60
2021/09/19 10:07:54;;;;;;;3.05;2.90;;;;;;;;;;5032347;28;20032;-61
2021/09/19 10:10:21;;;;;;;2.65;2.33;;;;;;;;;;5033188;28;20044;-58
2021/09/19 10:12:47;;;;;;;2.42;2.30;;;;;;;;;;5033876;28;20465;-56
2021/09/19 10:15:13;;;;;;;2.70;2.25;;;;;;;;;;5034224;28;20017;-56
2021/09/19 10:17:38;;;;;;;2.35;2.20;;;;;;;;;;5034671;28;20435;-56
2021/09/19 10:20:05;;;;;;;2.45;2.25;;;;;;;;;;5034659;28;20142;-59
2021/09/19 10:22:41;;;;;;;2.33;2.22;;;;;;;;;;5031579;28;20052;-58
2021/09/19 10:25:08;;;;;;;2.65;2.45;;;;;;;;;;5034403;28;20052;-58
2021/09/19 10:27:34;;;;;;;2.20;2.10;;;;;;;;;;5032951;28;20441;-59
2021/09/19 10:29:59;;;;;;;2.38;2.17;;;;;;;;;;5033950;28;20120;-57
2021/09/19 10:32:44;;;;;;;2.20;2.10;;;;;;;;;;5033203;28;20032;-56
2021/09/19 10:35:30;;;;;;;2.13;2.00;;;;;;;;;;5033467;28;20466;-55
2021/09/19 10:38:00;;;;;;;5.38;4.88;;;;;;;;;;5033025;28;20049;-59
2021/09/19 10:40:33;;;;;;;2.30;2.20;;;;;;;;;;5033963;28;20332;-56
2021/09/19 10:42:59;;;;;;;2.65;2.45;;;;;;;;;;5034517;28;20519;-58
2021/09/19 10:45:42;;;;;;;2.00;1.90;;;;;;;;;;5032216;28;20108;-59
2021/09/19 10:48:18;;;;;;;3.13;2.58;;;;;;;;;;5033055;28;20373;-56
2021/09/19 10:50:46;;;;;;;2.00;1.90;;;;;;;;;;5031431;28;20113;-56
2021/09/19 10:53:12;;;;;;;3.42;3.13;;;;;;;;;;5032329;28;20449;-58
2021/09/19 10:55:48;;;;;;;3.00;2.80;;;;;;;;;;5033537;28;20025;-59
2021/09/19 10:58:15;;;;;;;3.45;2.65;;;;;;;;;;5032271;28;20135;-58
2021/09/19 11:00:43;;;;;;;3.00;2.80;;;;;;;;;;5034065;28;20144;-56
2021/09/19 11:03:10;;;;;;;3.03;2.83;;;;;;;;;;5032426;28;20044;-57
2021/09/19 11:05:42;;;;;;;2.80;2.63;;;;;;;;;;5031500;28;20153;-56
2021/09/19 11:08:07;;;;;;;2.75;2.55;;;;;;;;;;5033447;28;20035;-61
2021/09/19 11:10:33;;;;;;;3.20;2.65;;;;;;;;;;5032707;28;20024;-53
2021/09/19 11:13:10;;;;;;;2.95;2.75;;;;;;;;;;5031976;28;20036;-57
2021/09/19 11:15:36;;;;;;;2.30;2.20;;;;;;;;;;5032617;28;20032;-60
2021/09/19 11:18:01;;;;;;;3.50;2.47;;;;;;;;;;5036974;28;20016;-59
2021/09/19 11:20:31;;;;;;;2.40;2.30;;;;;;;;;;5032508;28;20090;-58
2021/09/19 11:23:16;;;;;;;2.42;2.22;;;;;;;;;;5031957;28;20078;-55
2021/09/19 11:25:41;;;;;;;2.53;2.42;;;;;;;;;;5030435;28;20021;-56
2021/09/19 11:28:09;;;;;;;2.67;2.58;;;;;;;;;;5034711;28;20044;-59
2021/09/19 11:30:34;;;;;;;2.10;1.83;;;;;;;;;;5034917;28;20100;-58
2021/09/19 11:33:00;;;;;;;1.83;1.73;;;;;;;;;;5032292;28;20027;-58
2021/09/19 11:35:25;;;;;;;2.08;1.98;;;;;;;;;;5033144;28;20064;-59
2021/09/19 11:37:54;;;;;;;2.10;2.00;;;;;;;;;;5033350;28;20030;-56
2021/09/19 11:40:23;;;;;;;1.95;1.85;;;;;;;;;;5030276;28;20076;-59
2021/09/19 11:42:51;;;;;;;1.80;1.70;;;;;;;;;;5031391;28;20026;-58
2021/09/19 11:45:17;;;;;;;1.80;1.70;;;;;;;;;;5032650;28;20118;-58
2021/09/19 11:47:42;;;;;;;2.00;1.90;;;;;;;;;;5035214;28;20021;-57
2021/09/19 11:50:08;;;;;;;2.13;1.92;;;;;;;;;;5036473;28;20040;-56
2021/09/19 11:52:33;;;;;;;1.90;1.80;;;;;;;;;;5035678;28;20114;-57
2021/09/19 11:54:58;;;;;;;2.17;2.03;;;;;;;;;;5035898;28;20029;-58
2021/09/19 11:57:24;;;;;;;1.58;1.48;;;;;;;;;;5036649;28;20048;-57
2021/09/19 11:59:49;;;;;;;2.10;2.00;;;;;;;;;;5035364;28;20034;-57
2021/09/19 12:02:16;;;;;;;1.95;1.85;;;;;;;;;;5035402;28;20087;-57
2021/09/19 12:04:42;;;;;;;1.45;1.45;;;;;;;;;;5036246;28;20527;-57
2021/09/19 12:07:09;;;;;;;1.50;1.50;;;;;;;;;;5036584;28;20078;-58
2021/09/19 12:09:34;;;;;;;1.65;1.55;;;;;;;;;;5035607;28;20112;-58
2021/09/19 12:12:00;;;;;;;3.08;1.20;;;;;;;;;;5035300;28;20407;-54
2021/09/19 12:14:26;;;;;;;1.75;1.65;;;;;;;;;;5036573;28;20028;-54
2021/09/19 12:16:59;;;;;;;1.85;1.60;;;;;;;;;;5037196;28;20037;-59
2021/09/19 12:19:24;;;;;;;1.60;1.50;;;;;;;;;;5033909;28;20017;-57
2021/09/19 12:21:53;;;;;;;1.40;1.40;;;;;;;;;;5036013;28;20033;-57
2021/09/19 12:24:20;;;;;;;2.67;1.80;;;;;;;;;;5034954;28;20025;-58
2021/09/19 12:26:45;;;;;;;1.70;1.60;;;;;;;;;;5036239;28;20107;-58
2021/09/19 12:29:11;;;;;;;1.88;1.75;;;;;;;;;;5038296;28;20031;-57
2021/09/19 12:31:44;;;;;;;1.65;1.65;;;;;;;;;;5035451;28;20687;-58
2021/09/19 12:34:11;;;;;;;1.98;1.88;;;;;;;;;;5033914;28;20018;-57
2021/09/19 12:36:40;;;;;;;1.45;1.35;;;;;;;;;;5035363;28;20111;-58
2021/09/19 12:39:06;;;;;;;1.63;1.50;;;;;;;;;;5033946;28;20524;-56
2021/09/19 12:41:32;;;;;;;1.48;1.45;;;;;;;;;;5037238;28;20037;-57
2021/09/19 12:43:57;;;;;;;1.73;1.63;;;;;;;;;;5036687;28;20025;-59
2021/09/19 12:46:23;;;;;;;2.47;1.50;;;;;;;;;;5035455;28;20030;-60
2021/09/19 12:48:48;;;;;;;1.73;1.63;;;;;;;;;;5034233;28;20501;-58
2021/09/19 12:51:15;;;;;;;1.55;1.45;;;;;;;;;;5035518;28;20028;-59
2021/09/19 12:53:44;;;;;;;1.50;1.42;;;;;;;;;;5036888;28;20414;-58
2021/09/19 12:56:09;;;;;;;1.50;1.40;;;;;;;;;;5033940;28;20029;-59
2021/09/19 12:58:35;;;;;;;1.63;1.52;;;;;;;;;;5034970;28;20017;-60
2021/09/19 13:01:01;;;;;;;1.25;1.20;;;;;;;;;;5034612;28;20048;-58
2021/09/19 13:03:27;;;;;;;1.42;1.42;;;;;;;;;;5035863;28;20466;-58
2021/09/19 13:05:53;;;;;;;1.80;1.70;;;;;;;;;;5034672;28;20083;-57
2021/09/19 13:08:19;;;;;;;1.50;1.40;;;;;;;;;;5035695;28;20025;-57
2021/09/19 13:10:44;;;;;;;1.63;1.55;;;;;;;;;;5034119;28;20343;-55
2021/09/19 13:13:10;;;;;;;1.67;1.50;;;;;;;;;;5035702;28;20074;-57
2021/09/19 13:15:35;;;;;;;1.90;1.75;;;;;;;;;;5035875;28;20480;-56
2021/09/19 13:18:01;;;;;;;1.60;1.50;;;;;;;;;;5037546;28;20369;-60
2021/09/19 13:20:28;;;;;;;1.30;1.30;;;;;;;;;;5035987;28;20137;-58
2021/09/19 13:22:53;;;;;;;2.28;1.70;;;;;;;;;;5035674;28;20095;-59
2021/09/19 13:25:19;;;;;;;1.60;1.50;;;;;;;;;;5034057;28;20018;-61
2021/09/19 13:27:44;;;;;;;1.10;1.10;;;;;;;;;;5035477;28;20086;-60
2021/09/19 13:30:10;;;;;;;1.33;1.33;;;;;;;;;;5033560;28;20381;-60
2021/09/19 13:32:35;;;;;;;1.23;1.23;;;;;;;;;;5035935;28;20144;-58
2021/09/19 13:35:01;;;;;;;1.27;1.27;;;;;;;;;;5034844;28;20359;-57
2021/09/19 13:37:26;;;;;;;2.05;1.95;;;;;;;;;;5034428;28;20639;-61
2021/09/19 13:39:51;;;;;;;1.77;1.67;;;;;;;;;;5034838;28;20439;-60
2021/09/19 13:42:16;;;;;;;2.13;2.03;;;;;;;;;;5033828;28;20029;-58
2021/09/19 13:44:42;;;;;;;2.00;1.90;;;;;;;;;;5032992;28;20021;-60
2021/09/19 13:47:07;;;;;;;1.60;1.50;;;;;;;;;;5032553;28;20052;-60
2021/09/19 13:49:33;;;;;;;1.70;1.60;;;;;;;;;;5033756;28;20071;-61
2021/09/19 13:52:00;;;;;;;1.70;1.60;;;;;;;;;;5033687;28;20465;-59
2021/09/19 13:54:26;;;;;;;1.25;1.25;;;;;;;;;;5032973;28;20017;-60
2021/09/19 13:56:51;;;;;;;3.42;1.50;;;;;;;;;;5033178;28;20025;-58
2021/09/19 13:59:17;;;;;;;1.35;1.30;;;;;;;;;;5034042;28;20016;-59
2021/09/19 14:01:43;;;;;;;1.77;1.67;;;;;;;;;;5035242;28;20586;-59
2021/09/19 14:04:08;;;;;;;2.28;2.17;;;;;;;;;;5034366;28;20091;-59
2021/09/19 14:06:34;;;;;;;4.10;2.30;;;;;;;;;;5033956;28;20036;-60
2021/09/19 14:09:00;;;;;;;2.58;2.42;;;;;;;;;;5031253;28;20052;-57
2021/09/19 14:11:26;;;;;;;16.40;8.60;;;;;;;;;;5032222;28;20025;-57
2021/09/19 14:13:51;;;;;;;3.47;3.17;;;;;;;;;;5035758;28;20044;-58
2021/09/19 14:16:16;;;;;;;2.60;2.42;;;;;;;;;;5033266;28;20070;-57
2021/09/19 14:18:42;;;;;;;2.67;2.55;;;;;;;;;;5035116;28;20071;-59
2021/09/19 14:21:07;;;;;;;2.53;2.33;;;;;;;;;;5032791;28;20080;-59
2021/09/19 14:23:32;;;;;;;2.88;2.65;;;;;;;;;;5035733;28;20021;-57
2021/09/19 14:25:57;;;;;;;2.70;2.50;;;;;;;;;;5034322;28;20366;-58
2021/09/19 14:28:23;;;;;;;2.75;2.60;;;;;;;;;;5033909;28;20389;-57
2021/09/19 14:30:48;;;;;;;2.67;2.47;;;;;;;;;;5033292;28;20033;-55
2021/09/19 14:33:13;;;;;;;2.38;2.28;;;;;;;;;;5034407;28;20017;-56